createdAt,value
2019-01-24T00:00:24.052Z,92.22
2019-01-24T00:02:51.722Z,92.49
2019-01-24T00:05:19.362Z,92.27
2019-01-24T00:07:47.009Z,92.09
2019-01-24T00:10:15.595Z,92.16
2019-01-24T00:12:43.236Z,92.36
2019-01-24T00:15:11.008Z,92.49
2019-01-24T00:17:38.730Z,92.67
2019-01-24T00:20:06.863Z,92.74
2019-01-24T00:22:34.601Z,92.92
2019-01-24T00:25:02.349Z,92.91
2019-01-24T00:27:30.131Z,93.06
2019-01-24T00:29:57.901Z,93.07
2019-01-24T00:32:25.746Z,93.22
2019-01-24T00:34:53.470Z,93.27
2019-01-24T00:37:22.631Z,93.39
2019-01-24T00:39:50.347Z,93.37
2019-01-24T00:42:17.966Z,93.35
2019-01-24T00:44:45.675Z,93.64
2019-01-24T00:47:13.391Z,93.72
2019-01-24T00:49:43.761Z,93.65
2019-01-24T00:52:11.322Z,93.47
2019-01-24T00:54:38.989Z,93.11
2019-01-24T00:57:06.606Z,92.91
2019-01-24T00:59:34.206Z,92.99
2019-01-24T01:02:01.863Z,93.08
2019-01-24T01:04:29.934Z,92.94
2019-01-24T01:06:57.720Z,93.01
2019-01-24T01:09:25.348Z,93.24
2019-01-24T01:11:52.978Z,93.17
2019-01-24T01:14:20.596Z,93.44
2019-01-24T01:16:48.243Z,93.50
2019-01-24T01:19:15.883Z,93.28
2019-01-24T01:21:43.466Z,92.68
2019-01-24T01:24:11.161Z,92.88
2019-01-24T01:26:38.794Z,92.95
2019-01-24T01:29:06.423Z,92.76
2019-01-24T01:31:34.067Z,92.83
2019-01-24T01:34:03.352Z,92.57
2019-01-24T01:36:31.006Z,92.20
2019-01-24T01:38:58.716Z,92.20
2019-01-24T01:41:28.127Z,92.28
2019-01-24T01:43:55.861Z,92.34
2019-01-24T01:46:23.599Z,92.07
2019-01-24T01:48:52.338Z,92.24
2019-01-24T01:51:20.021Z,92.37
2019-01-24T01:53:47.740Z,92.35
2019-01-24T01:56:15.373Z,92.40
2019-01-24T01:58:43.003Z,92.63
2019-01-24T02:01:10.619Z,92.34
2019-01-24T02:03:39.474Z,92.45
2019-01-24T02:06:07.218Z,92.36
2019-01-24T02:08:34.992Z,92.39
2019-01-24T02:11:02.757Z,91.86
2019-01-24T02:13:30.703Z,91.71
2019-01-24T02:15:58.460Z,92.00
2019-01-24T02:18:26.317Z,92.26
2019-01-24T02:20:54.142Z,92.45
2019-01-24T02:23:21.777Z,92.81
2019-01-24T02:25:49.441Z,92.55
2019-01-24T02:28:17.179Z,92.47
2019-01-24T02:30:44.916Z,92.61
2019-01-24T02:33:12.741Z,92.32
2019-01-24T02:35:40.500Z,92.05
2019-01-24T02:38:08.245Z,92.00
2019-01-24T02:40:35.876Z,91.59
2019-01-24T02:43:03.639Z,91.66
2019-01-24T02:45:31.351Z,91.74
2019-01-24T02:47:59.111Z,91.71
2019-01-24T02:50:26.751Z,91.49
2019-01-24T02:52:54.509Z,91.39
2019-01-24T02:55:22.344Z,91.17
2019-01-24T02:57:50.023Z,91.08
2019-01-24T03:00:21.495Z,91.45
2019-01-24T03:02:50.648Z,91.57
2019-01-24T03:05:20.757Z,91.86
2019-01-24T03:07:49.839Z,92.15
2019-01-24T03:10:17.598Z,92.20
2019-01-24T03:12:45.432Z,91.99
2019-01-24T03:15:15.275Z,91.98
2019-01-24T03:17:45.867Z,91.59
2019-01-24T03:20:14.052Z,91.67
2019-01-24T03:22:41.774Z,91.43
2019-01-24T03:25:09.678Z,91.43
2019-01-24T03:27:37.418Z,91.37
2019-01-24T03:30:07.837Z,91.46
2019-01-24T03:32:35.573Z,91.04
2019-01-24T03:35:04.751Z,90.96
2019-01-24T03:37:32.487Z,90.95
2019-01-24T03:40:00.407Z,90.91
2019-01-24T03:42:28.113Z,91.01
2019-01-24T03:44:55.741Z,91.33
2019-01-24T03:47:23.416Z,90.90
2019-01-24T03:49:51.017Z,90.82
2019-01-24T03:52:18.703Z,90.79
2019-01-24T03:54:46.259Z,90.70
2019-01-24T03:57:13.980Z,91.23
2019-01-24T03:59:41.551Z,91.31
2019-01-24T04:02:09.213Z,91.66
2019-01-24T04:04:36.818Z,91.81
2019-01-24T04:07:04.699Z,91.89
2019-01-24T04:09:32.215Z,92.21
2019-01-24T04:11:59.885Z,92.25
2019-01-24T04:14:27.436Z,92.21
2019-01-24T04:16:55.048Z,92.29
2019-01-24T04:19:22.640Z,92.62
2019-01-24T04:21:50.288Z,92.48
2019-01-24T04:24:17.952Z,92.43
2019-01-24T04:26:45.498Z,92.39
2019-01-24T04:29:13.256Z,92.27
2019-01-24T04:31:40.842Z,92.31
2019-01-24T04:34:08.469Z,92.25
2019-01-24T04:36:36.098Z,92.02
2019-01-24T04:39:06.221Z,91.67
2019-01-24T04:41:33.804Z,91.30
2019-01-24T04:44:01.479Z,91.15
2019-01-24T04:46:29.073Z,91.03
2019-01-24T04:48:56.750Z,91.04
2019-01-24T04:51:24.359Z,91.13
2019-01-24T04:53:52.094Z,91.30
2019-01-24T04:56:19.682Z,91.48
2019-01-24T04:58:47.367Z,91.31
2019-01-24T05:01:14.996Z,91.36
2019-01-24T05:03:42.678Z,91.14
2019-01-24T05:06:10.302Z,91.31
2019-01-24T05:08:37.934Z,91.28
2019-01-24T05:11:05.509Z,90.89
2019-01-24T05:13:33.217Z,90.58
2019-01-24T05:16:00.797Z,90.73
2019-01-24T05:18:28.474Z,91.07
2019-01-24T05:20:56.035Z,91.35
2019-01-24T05:23:23.798Z,91.47
2019-01-24T05:25:51.392Z,90.88
2019-01-24T05:28:19.099Z,90.43
2019-01-24T05:30:46.685Z,90.49
2019-01-24T05:33:14.833Z,90.38
2019-01-24T05:35:42.442Z,90.22
2019-01-24T05:38:10.187Z,90.67
2019-01-24T05:40:37.790Z,90.67
2019-01-24T05:43:05.485Z,90.72
2019-01-24T05:45:33.051Z,91.02
2019-01-24T05:48:00.644Z,90.61
2019-01-24T05:50:28.230Z,90.45
2019-01-24T05:52:55.926Z,90.24
2019-01-24T05:55:23.667Z,90.41
2019-01-24T05:57:51.401Z,90.31
2019-01-24T06:00:45.343Z,90.56
2019-01-24T06:03:12.912Z,90.56
2019-01-24T06:05:41.846Z,90.75
2019-01-24T06:08:09.666Z,90.62
2019-01-24T06:10:37.406Z,90.87
2019-01-24T06:13:05.032Z,90.71
2019-01-24T06:15:32.763Z,90.89
2019-01-24T06:18:00.500Z,90.83
2019-01-24T06:20:28.167Z,90.56
2019-01-24T06:23:07.876Z,90.80
2019-01-24T06:25:35.579Z,90.96
2019-01-24T06:28:03.676Z,91.37
2019-01-24T06:30:31.485Z,91.37
2019-01-24T06:32:59.355Z,91.38
2019-01-24T06:35:27.160Z,91.81
2019-01-24T06:37:54.851Z,91.80
2019-01-24T06:40:22.650Z,91.99
2019-01-24T06:42:50.404Z,91.77
2019-01-24T06:45:19.924Z,91.56
2019-01-24T06:47:47.769Z,91.51
2019-01-24T06:50:16.059Z,91.50
2019-01-24T06:52:43.772Z,91.58
2019-01-24T06:55:13.892Z,92.31
2019-01-24T06:57:41.729Z,92.36
2019-01-24T07:00:12.439Z,92.30
2019-01-24T07:02:40.129Z,92.16
2019-01-24T07:05:07.819Z,92.39
2019-01-24T07:07:35.598Z,92.34
2019-01-24T07:10:03.977Z,92.21
2019-01-24T07:12:31.700Z,91.93
2019-01-24T07:14:59.303Z,91.87
2019-01-24T07:17:27.056Z,92.02
2019-01-24T07:19:54.653Z,92.16
2019-01-24T07:22:22.274Z,92.25
2019-01-24T07:24:49.907Z,92.09
2019-01-24T07:27:17.603Z,92.30
2019-01-24T07:29:45.226Z,92.24
2019-01-24T07:32:12.929Z,91.91
2019-01-24T07:34:40.531Z,91.84
2019-01-24T07:37:08.192Z,91.80
2019-01-24T07:39:35.823Z,91.63
2019-01-24T07:42:03.616Z,91.68
2019-01-24T07:44:31.298Z,91.48
2019-01-24T07:46:58.900Z,90.72
2019-01-24T07:49:29.447Z,90.45
2019-01-24T07:51:57.127Z,89.87
2019-01-24T07:54:24.729Z,88.54
2019-01-24T07:56:52.498Z,87.73
2019-01-24T07:59:20.136Z,87.25
2019-01-24T08:01:47.744Z,86.88
2019-01-24T08:04:15.362Z,86.36
2019-01-24T08:06:42.996Z,85.80
2019-01-24T08:09:10.627Z,86.15
2019-01-24T08:11:38.372Z,86.23
2019-01-24T08:14:06.013Z,86.00
2019-01-24T08:16:33.642Z,85.59
2019-01-24T08:19:01.234Z,84.87
2019-01-24T08:21:28.832Z,85.36
2019-01-24T08:23:56.428Z,85.52
2019-01-24T08:26:24.038Z,85.79
2019-01-24T08:28:51.632Z,86.23
2019-01-24T08:31:19.254Z,86.02
2019-01-24T08:33:47.883Z,85.19
2019-01-24T08:36:15.813Z,85.08
2019-01-24T08:38:43.560Z,85.02
2019-01-24T08:41:11.276Z,84.85
2019-01-24T08:43:39.077Z,84.36
2019-01-24T08:46:06.901Z,84.58
2019-01-24T08:48:39.033Z,84.22
2019-01-24T08:51:08.380Z,84.29
2019-01-24T08:53:36.232Z,83.17
2019-01-24T08:56:04.417Z,83.47
2019-01-24T08:58:32.193Z,83.39
2019-01-24T09:00:59.991Z,83.20
2019-01-24T09:03:27.748Z,82.11
2019-01-24T09:05:55.487Z,82.21
2019-01-24T09:08:23.177Z,82.33
2019-01-24T09:10:50.897Z,82.72
2019-01-24T09:13:18.540Z,83.13
2019-01-24T09:15:46.477Z,82.58
2019-01-24T09:18:14.396Z,82.62
2019-01-24T09:20:41.953Z,82.05
2019-01-24T09:23:09.628Z,81.26
2019-01-24T09:25:37.285Z,81.91
2019-01-24T09:28:05.201Z,81.96
2019-01-24T09:30:32.876Z,81.86
2019-01-24T09:33:00.760Z,81.74
2019-01-24T09:35:28.488Z,81.65
2019-01-24T09:37:56.290Z,81.67
2019-01-24T09:40:24.061Z,80.85
2019-01-24T09:42:51.810Z,80.79
2019-01-24T09:45:21.756Z,80.35
2019-01-24T09:47:49.586Z,80.91
2019-01-24T09:50:19.173Z,80.35
2019-01-24T09:52:46.997Z,80.24
2019-01-24T09:55:14.575Z,79.71
2019-01-24T09:57:42.248Z,79.92
2019-01-24T10:00:31.209Z,79.73
2019-01-24T10:02:59.016Z,79.77
2019-01-24T10:05:26.735Z,79.66
2019-01-24T10:07:54.664Z,79.00
2019-01-24T10:10:25.703Z,79.19
2019-01-24T10:12:54.353Z,79.14
2019-01-24T10:15:22.072Z,79.17
2019-01-24T10:17:49.743Z,78.62
2019-01-24T10:20:18.734Z,79.90
2019-01-24T10:22:46.524Z,79.35
2019-01-24T10:25:16.939Z,80.15
2019-01-24T10:27:44.646Z,79.47
2019-01-24T10:30:13.903Z,79.69
2019-01-24T10:32:41.647Z,79.81
2019-01-24T10:35:09.279Z,79.34
2019-01-24T10:37:36.938Z,79.58
2019-01-24T10:40:06.825Z,79.33
2019-01-24T10:42:34.572Z,79.97
2019-01-24T10:45:02.313Z,80.33
2019-01-24T10:47:30.099Z,79.98
2019-01-24T10:49:57.880Z,79.82
2019-01-24T10:52:25.693Z,79.24
2019-01-24T10:54:53.414Z,78.73
2019-01-24T10:57:21.232Z,78.39
2019-01-24T10:59:49.026Z,77.83
2019-01-24T11:02:16.762Z,77.11
2019-01-24T11:04:44.595Z,77.03
2019-01-24T11:07:12.331Z,77.21
2019-01-24T11:09:40.081Z,77.21
2019-01-24T11:12:07.748Z,76.91
2019-01-24T11:14:35.577Z,77.63
2019-01-24T11:17:03.320Z,76.99
2019-01-24T11:19:31.161Z,76.98
2019-01-24T11:21:58.863Z,77.20
2019-01-24T11:24:26.580Z,77.22
2019-01-24T11:26:54.355Z,77.58
2019-01-24T11:29:22.100Z,77.07
2019-01-24T11:31:50.898Z,77.93
2019-01-24T11:34:18.595Z,77.78
2019-01-24T11:36:49.148Z,78.30
2019-01-24T11:39:16.928Z,78.35
2019-01-24T11:41:44.586Z,77.94
2019-01-24T11:44:12.300Z,78.76
2019-01-24T11:46:40.009Z,77.93
2019-01-24T11:49:07.729Z,78.27
2019-01-24T11:51:35.388Z,78.21
2019-01-24T11:54:03.126Z,77.86
2019-01-24T11:56:30.871Z,78.33
2019-01-24T11:58:58.608Z,77.87
2019-01-24T12:01:26.611Z,77.06
2019-01-24T12:03:56.093Z,76.89
2019-01-24T12:06:24.294Z,76.44
2019-01-24T12:08:52.611Z,76.73
2019-01-24T12:11:23.588Z,76.57
2019-01-24T12:13:51.932Z,76.32
2019-01-24T12:16:20.481Z,76.66
2019-01-24T12:18:49.227Z,77.46
2019-01-24T12:21:17.460Z,77.21
2019-01-24T12:23:45.360Z,77.35
2019-01-24T12:26:13.287Z,76.58
2019-01-24T12:28:41.003Z,76.87
2019-01-24T12:31:08.632Z,77.07
2019-01-24T12:33:39.271Z,76.12
2019-01-24T12:36:06.830Z,75.88
2019-01-24T12:38:34.484Z,76.30
2019-01-24T12:41:02.096Z,76.25
2019-01-24T12:43:29.886Z,76.11
2019-01-24T12:45:58.592Z,76.33
2019-01-24T12:48:26.264Z,76.09
2019-01-24T12:50:53.954Z,75.15
2019-01-24T12:53:21.690Z,74.94
2019-01-24T12:55:49.343Z,75.87
2019-01-24T12:58:17.068Z,75.92
2019-01-24T13:00:44.724Z,75.56
2019-01-24T13:03:12.511Z,74.92
2019-01-24T13:05:40.165Z,75.53
2019-01-24T13:08:08.080Z,75.21
2019-01-24T13:10:35.935Z,75.37
2019-01-24T13:13:04.112Z,74.62
2019-01-24T13:15:32.467Z,74.46
2019-01-24T13:18:00.445Z,74.40
2019-01-24T13:20:28.454Z,74.68
2019-01-24T13:22:56.147Z,74.59
2019-01-24T13:25:26.202Z,74.86
2019-01-24T13:27:53.970Z,74.39
2019-01-24T13:30:23.418Z,74.40
2019-01-24T13:32:52.219Z,74.62
2019-01-24T13:35:19.896Z,74.10
2019-01-24T13:37:47.504Z,74.82
2019-01-24T13:40:17.628Z,74.00
2019-01-24T13:42:45.378Z,74.29
2019-01-24T13:45:16.078Z,73.69
2019-01-24T13:47:43.784Z,73.41
2019-01-24T13:50:13.351Z,73.00
2019-01-24T13:52:41.025Z,73.92
2019-01-24T13:55:08.796Z,73.78
2019-01-24T13:57:36.425Z,73.60
2019-01-24T14:00:08.890Z,74.03
2019-01-24T14:02:37.030Z,73.42
2019-01-24T14:05:06.467Z,73.24
2019-01-24T14:07:34.141Z,73.27
2019-01-24T14:10:01.951Z,73.65
2019-01-24T14:12:29.686Z,73.79
2019-01-24T14:14:57.375Z,73.99
2019-01-24T14:17:24.961Z,74.02
2019-01-24T14:19:52.814Z,73.10
2019-01-24T14:22:20.406Z,72.55
2019-01-24T14:24:48.092Z,72.82
2019-01-24T14:27:15.663Z,72.35
2019-01-24T14:29:43.424Z,73.24
2019-01-24T14:32:11.586Z,73.91
2019-01-24T14:34:39.616Z,74.14
2019-01-24T14:37:08.249Z,73.87
2019-01-24T14:39:35.946Z,73.75
2019-01-24T14:42:03.650Z,73.99
2019-01-24T14:44:31.331Z,74.20
2019-01-24T14:46:58.943Z,74.09
2019-01-24T14:49:26.619Z,74.31
2019-01-24T14:51:54.169Z,74.65
2019-01-24T14:54:21.888Z,74.96
2019-01-24T14:56:49.459Z,75.10
2019-01-24T14:59:17.177Z,76.16
2019-01-24T15:01:44.873Z,75.95
2019-01-24T15:04:12.565Z,76.00
2019-01-24T15:06:40.184Z,76.59
2019-01-24T15:09:08.306Z,77.22
2019-01-24T15:11:35.894Z,77.52
2019-01-24T15:14:04.138Z,78.21
2019-01-24T15:16:31.743Z,78.47
2019-01-24T15:18:59.531Z,79.02
2019-01-24T15:21:27.144Z,80.12
2019-01-24T15:23:54.763Z,81.02
2019-01-24T15:26:23.382Z,80.82
2019-01-24T15:28:51.085Z,80.28
2019-01-24T15:31:18.673Z,80.48
2019-01-24T15:33:46.353Z,80.68
2019-01-24T15:36:13.921Z,81.17
2019-01-24T15:38:41.593Z,81.16
2019-01-24T15:41:09.187Z,81.43
2019-01-24T15:43:37.122Z,81.62
2019-01-24T15:46:04.845Z,81.79
2019-01-24T15:48:32.640Z,82.19
2019-01-24T15:51:00.244Z,82.62
2019-01-24T15:53:27.928Z,82.52
2019-01-24T15:55:55.571Z,82.89
2019-01-24T15:58:23.293Z,83.95
2019-01-24T16:00:50.927Z,83.87
2019-01-24T16:03:18.613Z,84.70
2019-01-24T16:05:46.256Z,85.15
2019-01-24T16:08:13.883Z,85.59
2019-01-24T16:10:41.534Z,85.36
2019-01-24T16:13:09.195Z,84.98
2019-01-24T16:15:37.115Z,85.27
2019-01-24T16:18:07.244Z,85.21
2019-01-24T16:20:34.965Z,85.48
2019-01-24T16:23:02.611Z,85.96
2019-01-24T16:25:31.418Z,85.98
2019-01-24T16:27:59.112Z,86.53
2019-01-24T16:30:30.857Z,87.09
2019-01-24T16:32:58.629Z,87.22
2019-01-24T16:35:26.445Z,87.09
2019-01-24T16:37:55.827Z,87.76
2019-01-24T16:40:24.532Z,87.17
2019-01-24T16:42:52.247Z,87.02
2019-01-24T16:45:21.705Z,87.73
2019-01-24T16:47:49.497Z,88.35
2019-01-24T16:50:18.213Z,88.35
2019-01-24T16:52:45.963Z,89.00
2019-01-24T16:55:14.061Z,89.24
2019-01-24T16:57:41.790Z,88.52
2019-01-24T17:00:36.423Z,88.54
2019-01-24T17:03:04.308Z,88.62
2019-01-24T17:05:31.961Z,89.06
2019-01-24T17:07:59.562Z,88.77
2019-01-24T17:10:27.237Z,88.71
2019-01-24T17:12:56.004Z,88.80
2019-01-24T17:15:23.875Z,88.96
2019-01-24T17:17:51.499Z,89.50
2019-01-24T17:20:21.132Z,88.60
2019-01-24T17:22:48.919Z,88.81
2019-01-24T17:25:17.671Z,88.54
2019-01-24T17:27:46.348Z,88.50
2019-01-24T17:30:17.568Z,88.48
2019-01-24T17:32:46.947Z,88.52
2019-01-24T17:35:14.881Z,89.05
2019-01-24T17:37:42.553Z,88.86
2019-01-24T17:40:19.307Z,88.82
2019-01-24T17:42:46.941Z,89.51
2019-01-24T17:45:15.058Z,89.57
2019-01-24T17:47:42.787Z,90.04
2019-01-24T17:50:11.285Z,89.98
2019-01-24T17:52:38.973Z,90.18
2019-01-24T17:55:12.735Z,90.51
2019-01-24T17:57:40.617Z,90.15
2019-01-24T18:00:12.556Z,90.20
2019-01-24T18:02:40.297Z,90.25
2019-01-24T18:05:08.679Z,90.14
2019-01-24T18:07:36.275Z,89.95
2019-01-24T18:10:13.873Z,90.49
2019-01-24T18:12:37.310Z,90.75
2019-01-24T18:15:07.493Z,90.37
2019-01-24T18:17:35.213Z,90.38
2019-01-24T18:20:03.499Z,90.91
2019-01-24T18:22:31.142Z,90.58
2019-01-24T18:24:58.801Z,90.95
2019-01-24T18:27:26.567Z,91.33
2019-01-24T18:29:54.373Z,90.64
2019-01-24T18:32:22.161Z,90.42
2019-01-24T18:34:49.870Z,90.74
2019-01-24T18:37:17.562Z,90.88
2019-01-24T18:39:45.273Z,90.51
2019-01-24T18:42:13.084Z,90.22
2019-01-24T18:44:40.759Z,89.77
2019-01-24T18:47:08.432Z,89.24
2019-01-24T18:49:36.220Z,88.63
2019-01-24T18:52:04.869Z,87.55
2019-01-24T18:54:32.671Z,87.25
2019-01-24T18:57:00.380Z,86.27
2019-01-24T18:59:28.139Z,88.22
2019-01-24T19:01:55.875Z,91.45
2019-01-24T19:04:23.559Z,91.67
2019-01-24T19:06:51.326Z,93.02
2019-01-24T19:09:19.090Z,92.24
2019-01-24T19:11:46.918Z,91.06
2019-01-24T19:14:14.652Z,90.84
2019-01-24T19:16:42.384Z,87.29
2019-01-24T19:19:10.040Z,88.37
2019-01-24T19:21:37.781Z,86.54
2019-01-24T19:24:05.469Z,79.98
2019-01-24T19:26:33.249Z,84.67
2019-01-24T19:29:00.955Z,82.93
2019-01-24T19:31:29.773Z,78.63
2019-01-24T19:33:57.519Z,84.09
2019-01-24T19:36:25.249Z,75.37
2019-01-24T19:38:53.402Z,73.47
2019-01-24T19:41:21.406Z,72.42
2019-01-24T19:43:49.182Z,72.16
2019-01-24T19:46:17.072Z,72.54
2019-01-24T19:48:44.772Z,72.09
2019-01-24T19:51:12.672Z,72.58
2019-01-24T19:53:40.522Z,72.69
2019-01-24T19:56:08.505Z,72.21
2019-01-24T19:58:36.261Z,72.55
2019-01-24T20:01:04.496Z,72.21
2019-01-24T20:03:33.924Z,72.48
2019-01-24T20:06:03.469Z,72.35
2019-01-24T20:08:31.230Z,72.57
2019-01-24T20:10:58.999Z,72.36
2019-01-24T20:13:26.818Z,71.91
2019-01-24T20:15:54.489Z,72.55
2019-01-24T20:18:22.165Z,73.37
2019-01-24T20:20:50.825Z,73.04
2019-01-24T20:23:18.521Z,73.57
2019-01-24T20:25:46.310Z,73.17
2019-01-24T20:28:14.002Z,72.79
2019-01-24T20:30:41.814Z,72.26
2019-01-24T20:33:09.567Z,72.57
2019-01-24T20:35:46.032Z,72.66
2019-01-24T20:38:19.921Z,72.07
2019-01-24T20:40:47.634Z,72.42
2019-01-24T20:43:18.171Z,72.07
2019-01-24T20:45:48.565Z,71.40
2019-01-24T20:48:16.197Z,72.05
2019-01-24T20:50:44.021Z,71.67
2019-01-24T20:53:13.443Z,71.74
2019-01-24T20:55:41.221Z,71.26
2019-01-24T20:58:08.951Z,71.81
2019-01-24T21:00:37.712Z,71.21
2019-01-24T21:03:05.859Z,71.20
2019-01-24T21:05:33.498Z,71.75
2019-01-24T21:08:03.934Z,71.09
2019-01-24T21:10:31.586Z,70.64
2019-01-24T21:12:59.229Z,70.60
2019-01-24T21:15:26.883Z,70.32
2019-01-24T21:17:54.552Z,70.78
2019-01-24T21:20:23.889Z,70.88
2019-01-24T21:22:51.485Z,70.04
2019-01-24T21:25:20.438Z,70.89
2019-01-24T21:27:48.126Z,70.92
2019-01-24T21:30:30.257Z,71.59
2019-01-24T21:32:57.844Z,71.74
2019-01-24T21:35:25.615Z,70.90
2019-01-24T21:37:53.265Z,69.18
2019-01-24T21:40:21.212Z,69.46
2019-01-24T21:42:48.778Z,70.34
2019-01-24T21:45:18.653Z,69.72
2019-01-24T21:47:46.232Z,69.65
2019-01-24T21:50:16.245Z,69.99
2019-01-24T21:52:44.009Z,69.81
2019-01-24T21:55:12.159Z,68.44
2019-01-24T21:57:39.794Z,69.00
2019-01-24T22:00:09.603Z,69.52
2019-01-24T22:02:37.183Z,69.35
2019-01-24T22:05:05.547Z,69.41
2019-01-24T22:07:33.236Z,69.72
2019-01-24T22:10:00.987Z,68.99
2019-01-24T22:12:29.848Z,67.96
2019-01-24T22:14:57.492Z,68.37
2019-01-24T22:17:25.089Z,67.82
2019-01-24T22:19:52.751Z,67.89
2019-01-24T22:22:20.540Z,67.36
2019-01-24T22:24:48.179Z,67.85
2019-01-24T22:27:15.829Z,68.20
2019-01-24T22:29:43.474Z,68.68
2019-01-24T22:32:11.083Z,69.33
2019-01-24T22:34:38.694Z,68.93
2019-01-24T22:37:06.418Z,69.35
2019-01-24T22:39:36.723Z,68.96
2019-01-24T22:42:04.327Z,69.30
2019-01-24T22:44:32.015Z,69.81
2019-01-24T22:47:01.648Z,69.46
2019-01-24T22:49:29.035Z,69.38
2019-01-24T22:51:56.680Z,69.85
2019-01-24T22:54:24.364Z,69.08
2019-01-24T22:56:52.069Z,70.06
2019-01-24T22:59:19.750Z,70.51
2019-01-24T23:02:11.241Z,70.58
2019-01-24T23:04:38.842Z,71.32
2019-01-24T23:07:06.528Z,70.33
2019-01-24T23:09:34.135Z,70.55
2019-01-24T23:12:01.812Z,70.53
2019-01-24T23:14:29.442Z,70.36
2019-01-24T23:16:57.153Z,70.46
2019-01-24T23:19:24.813Z,70.29
2019-01-24T23:21:52.562Z,69.82
2019-01-24T23:24:20.159Z,70.00
2019-01-24T23:26:47.803Z,70.00
2019-01-24T23:29:15.404Z,70.02
2019-01-24T23:31:43.118Z,70.10
2019-01-24T23:34:10.870Z,70.06
2019-01-24T23:36:38.575Z,70.78
2019-01-24T23:39:08.832Z,70.44
2019-01-24T23:41:36.608Z,71.19
2019-01-24T23:44:04.393Z,71.23
2019-01-24T23:46:32.149Z,73.63
2019-01-24T23:48:59.813Z,76.28
2019-01-24T23:51:27.408Z,77.83
2019-01-24T23:53:55.256Z,78.89
2019-01-24T23:56:22.925Z,79.93
2019-01-24T23:58:50.559Z,80.90
